Nederlandse vliegveldverwachtingen (TAF)

Luchtvaartmeteorologische informatie voor operationeel gebruik en vluchtvoorbereiding is beschikbaar op www.luchtvaartmeteo.nl.

ZCZC
FC122000 EHGR     GILZE-RIJEN/GILZE-RIJEN   NLD   14 m.
TAF EHGR 122000Z NIL=

ZCZC
FC122000 EHVK     VOLKEL/VOLKEL   NLD   21 m.
TAF EHVK 122000Z NIL=

ZCZC
FC122000 EHWO     WOENSDRECHT/WOENSDRECHT   NLD   19 m.
TAF EHWO 122000Z NIL=

ZCZC
FT122300 EHAM     AMSTERDAM/SCHIPHOL   NLD   -3 m.
TAF EHAM 122323Z 1300/1406 18015KT CAVOK
    BECMG 1301/1304 19017G27KT 7000 -RA -RASN BKN012
    TEMPO 1304/1311 4000 DZRA BKN006
    BECMG 1310/1313 25013G23KT 9999 NSW SCT020
    BECMG 1314/1317 20015KT 7000 -RA BKN012
    TEMPO 1317/1320 21020G30KT 4500 RA -SHRA BKN008 FEW020CB
    BECMG 1319/1321 27015G25KT 9999 NSW SCT025
    BECMG 1322/1401 24015KT
    TEMPO 1401/1406 27020G30KT 3500 SHRA TSRAGS SCT018CB
    BKN020=

ZCZC
FT122300 EHBK     MAASTRICHT/MAASTRICHT-AACHEN   NLD   114 m.
TAF EHBK 122323Z 1300/1406 20015KT 9999 SCT025
    BECMG 1307/1310 21023G33KT 7000 -RA SCT012 BKN018
    TEMPO 1308/1312 4000 RA RASN SCT008 BKN012
    PROB30 TEMPO 1308/1312 2000 SNRA BKN003
    BECMG 1312/1315 22016KT 9999 NSW
    BECMG 1315/1318 20020G30KT 7000 -RA
    TEMPO 1318/1322 4000 RA SCT008 BKN012
    BECMG 1321/1324 25014KT 9999 NSW
    TEMPO 1402/1406 25020G30KT 4000 RA SHRASN BKN006 SCT015CB
    PROB30 TEMPO 1402/1406 2000 TSSNRA BKN003=

ZCZC
FT122300 EHGG     GRONINGEN/EELDE   NLD   5 m.
TAF EHGG 122322Z 1300/1406 20015KT 4000 BR BKN004
    BECMG 1300/1303 9999 NSW NSC
    BECMG 1306/1309 19018G28KT 7000 -RASN BKN006
    PROB40 TEMPO 1307/1311 2000 SNRA BKN003
    PROB30 TEMPO 1311/1313 4000 RASN BKN003
    BECMG 1312/1315 22014KT 9999 NSW BKN020
    BECMG 1315/1318 18017G27KT 7000 -RA BKN012
    TEMPO 1318/1322 4000 RA BKN006
    BECMG 1321/1324 25015KT 9999 NSW SCT020
    TEMPO 1404/1406 25017G27KT 4000 RASN SHSNRA BKN006 SCT015CB
    PROB30 TEMPO 1404/1406 2000 TSSNRA BKN003=

ZCZC
FT122300 EHRD     ROTTERDAM/THE HAGUE AIRPORT   NLD   -5 m.
TAF EHRD 122323Z 1300/1406 18015KT CAVOK
    BECMG 1301/1304 19017G27KT 7000 -RA -RASN BKN012
    TEMPO 1304/1311 4000 DZRA BKN006
    BECMG 1310/1313 25013G23KT 9999 NSW SCT020
    BECMG 1314/1317 20015KT 7000 -RA BKN012
    TEMPO 1317/1320 21020G30KT 4500 RA -SHRA BKN008 FEW020CB
    BECMG 1319/1321 27015G25KT 9999 NSW SCT025
    BECMG 1322/1401 24015KT
    TEMPO 1401/1406 27020G30KT 3500 SHRA TSRAGS SCT018CB
    BKN020=

ZCZC
FT122300 EHEH     EINDHOVEN/EINDHOVEN   NLD   22 m.
TAF EHEH 122354Z 1300/1406 18007KT 9000 NSC
    BECMG 1300/1303 19015G25KT
    BECMG 1307/1309 4000 RA SCT008 BKN012
    PROB30 TEMPO 1307/1312 3000 RASN SCT005 BKN009
    BECMG 1312/1314 21012KT 9999 NSW SCT010 BKN020
    TEMPO 1317/1322 25017G27KT 4500 RA SHRA FEW005 BKN008
    SCT015CB
    PROB40 TEMPO 1319/1322 2500 TSRA SCT005 BKN008 SCT015CB
    BECMG 1322/1324 22012KT SCT020
    TEMPO 1401/1406 27015G25KT 4500 SHRA SCT008 SCT018CB
    PROB30 TEMPO 1401/1404 3000 TSRA SCT004 BKN008 SCT015CB=

ZCZC
FC130000 EHLW RRB LEEUWARDEN/LEEUWARDEN   NLD   1 m.
TAF EHLW 130147Z 1302/1314 18012KT CAVOK
    BECMG 1303/1306 FEW010 SCT013 OVC015
    BECMG 1305/1307 18020G30KT 4500 RA SCT005 BKN010 OVC015
    PROB30 TEMPO 1305/1308 -RASN 2000 FEW003 BKN005 OVC010
    PROB40 TEMPO 1307/1313 3000 RADZ FEW002 SCT003 BKN005
    OVC010
    BECMG 1311/1313 21010KT=

ZCZC
FC130200 EHKD     DE KOOY/DE KOOY   NLD   1 m.
TAF EHKD 130115Z 1302/1314 19015KT CAVOK
    BECMG 1302/1305 FEW010 SCT013 OVC015
    BECMG 1304/1307 18025G35KT 4500 RA SCT005 BKN010 OVC015
    PROB30 TEMPO 1304/1308 -RASN 2000 FEW003 BKN005 OVC010
    PROB40 TEMPO 1308/1312 3000 RADZ FEW002 SCT003 BKN005
    OVC010
    BECMG 1311/1313 21013KT 9999 NSW SCT015 SCT020=

13/12/2017 03.30 uur LT